sensor_id;sensor_type;location;lat;lon;timestamp;P1;durP1;ratioP1;P2;durP2;ratioP2
76073;SDS011;64776;42.636;24.358;2023-07-22T00:17:29;11.15;;;5.03;;
76073;SDS011;64776;42.636;24.358;2023-07-22T00:20:30;10.65;;;4.88;;
76073;SDS011;64776;42.636;24.358;2023-07-22T00:23:31;9.75;;;4.97;;
76073;SDS011;64776;42.636;24.358;2023-07-22T00:26:31;11.57;;;5.13;;
76073;SDS011;64776;42.636;24.358;2023-07-22T00:29:32;13.73;;;5.05;;
76073;SDS011;64776;42.636;24.358;2023-07-22T00:32:34;10.90;;;4.72;;
76073;SDS011;64776;42.636;24.358;2023-07-22T00:35:35;10.55;;;5.22;;
76073;SDS011;64776;42.636;24.358;2023-07-22T00:38:36;11.82;;;5.93;;
76073;SDS011;64776;42.636;24.358;2023-07-22T00:41:37;9.63;;;4.80;;
76073;SDS011;64776;42.636;24.358;2023-07-22T00:44:38;11.88;;;4.90;;
76073;SDS011;64776;42.636;24.358;2023-07-22T00:47:40;15.00;;;8.18;;
76073;SDS011;64776;42.636;24.358;2023-07-22T00:50:41;13.00;;;6.47;;
76073;SDS011;64776;42.636;24.358;2023-07-22T00:53:42;11.88;;;5.53;;
76073;SDS011;64776;42.636;24.358;2023-07-22T00:56:44;12.95;;;5.72;;
76073;SDS011;64776;42.636;24.358;2023-07-22T00:59:47;12.27;;;6.03;;
76073;SDS011;64776;42.636;24.358;2023-07-22T01:02:51;13.68;;;6.03;;
76073;SDS011;64776;42.636;24.358;2023-07-22T01:05:52;12.88;;;6.20;;
76073;SDS011;64776;42.636;24.358;2023-07-22T01:08:55;12.13;;;5.95;;
76073;SDS011;64776;42.636;24.358;2023-07-22T01:11:57;13.32;;;6.38;;
76073;SDS011;64776;42.636;24.358;2023-07-22T01:14:58;14.30;;;6.72;;
76073;SDS011;64776;42.636;24.358;2023-07-22T01:18:00;11.48;;;5.60;;
76073;SDS011;64776;42.636;24.358;2023-07-22T01:21:02;12.52;;;5.57;;
76073;SDS011;64776;42.636;24.358;2023-07-22T01:24:05;13.15;;;6.55;;
76073;SDS011;64776;42.636;24.358;2023-07-22T01:27:07;10.70;;;5.68;;
76073;SDS011;64776;42.636;24.358;2023-07-22T01:30:09;10.18;;;5.75;;
76073;SDS011;64776;42.636;24.358;2023-07-22T01:33:10;10.80;;;5.15;;
76073;SDS011;64776;42.636;24.358;2023-07-22T01:36:11;12.98;;;6.20;;
76073;SDS011;64776;42.636;24.358;2023-07-22T01:39:13;15.05;;;6.90;;
76073;SDS011;64776;42.636;24.358;2023-07-22T01:42:14;13.27;;;6.15;;
76073;SDS011;64776;42.636;24.358;2023-07-22T01:45:15;10.45;;;6.20;;
76073;SDS011;64776;42.636;24.358;2023-07-22T01:48:16;11.20;;;5.00;;
76073;SDS011;64776;42.636;24.358;2023-07-22T01:51:16;11.20;;;6.28;;
76073;SDS011;64776;42.636;24.358;2023-07-22T01:54:19;13.45;;;5.97;;
76073;SDS011;64776;42.636;24.358;2023-07-22T01:57:19;12.30;;;6.47;;
76073;SDS011;64776;42.636;24.358;2023-07-22T02:00:20;11.73;;;5.88;;
76073;SDS011;64776;42.636;24.358;2023-07-22T02:03:21;12.80;;;5.95;;
76073;SDS011;64776;42.636;24.358;2023-07-22T02:06:22;11.02;;;5.88;;
76073;SDS011;64776;42.636;24.358;2023-07-22T02:09:24;12.60;;;5.60;;
76073;SDS011;64776;42.636;24.358;2023-07-22T02:12:25;12.00;;;5.90;;
76073;SDS011;64776;42.636;24.358;2023-07-22T02:15:25;11.75;;;6.30;;
76073;SDS011;64776;42.636;24.358;2023-07-22T02:18:26;11.45;;;5.65;;
76073;SDS011;64776;42.636;24.358;2023-07-22T02:21:27;11.52;;;6.15;;
76073;SDS011;64776;42.636;24.358;2023-07-22T02:24:29;13.48;;;5.80;;
76073;SDS011;64776;42.636;24.358;2023-07-22T02:27:30;12.57;;;6.25;;
76073;SDS011;64776;42.636;24.358;2023-07-22T02:30:33;10.68;;;5.38;;
76073;SDS011;64776;42.636;24.358;2023-07-22T02:33:34;12.57;;;6.30;;
76073;SDS011;64776;42.636;24.358;2023-07-22T02:36:35;17.27;;;6.53;;
76073;SDS011;64776;42.636;24.358;2023-07-22T02:39:37;11.30;;;6.28;;
76073;SDS011;64776;42.636;24.358;2023-07-22T02:42:38;14.63;;;6.13;;
76073;SDS011;64776;42.636;24.358;2023-07-22T02:45:39;11.88;;;6.32;;
76073;SDS011;64776;42.636;24.358;2023-07-22T02:48:40;14.82;;;6.63;;
76073;SDS011;64776;42.636;24.358;2023-07-22T02:51:40;10.73;;;5.72;;
76073;SDS011;64776;42.636;24.358;2023-07-22T02:54:42;12.23;;;6.80;;
76073;SDS011;64776;42.636;24.358;2023-07-22T02:58:05;13.60;;;6.07;;
76073;SDS011;64776;42.636;24.358;2023-07-22T03:01:06;13.52;;;6.50;;
76073;SDS011;64776;42.636;24.358;2023-07-22T03:04:07;12.50;;;6.95;;
76073;SDS011;64776;42.636;24.358;2023-07-22T03:07:07;11.38;;;5.90;;
76073;SDS011;64776;42.636;24.358;2023-07-22T03:10:14;12.65;;;6.60;;
76073;SDS011;64776;42.636;24.358;2023-07-22T03:13:15;16.73;;;6.93;;
76073;SDS011;64776;42.636;24.358;2023-07-22T03:16:16;13.45;;;6.95;;
76073;SDS011;64776;42.636;24.358;2023-07-22T03:19:17;15.25;;;6.88;;
76073;SDS011;64776;42.636;24.358;2023-07-22T03:22:18;15.38;;;6.70;;
76073;SDS011;64776;42.636;24.358;2023-07-22T03:25:20;14.52;;;7.03;;
76073;SDS011;64776;42.636;24.358;2023-07-22T03:28:21;14.07;;;6.88;;
76073;SDS011;64776;42.636;24.358;2023-07-22T03:31:22;13.50;;;7.13;;
76073;SDS011;64776;42.636;24.358;2023-07-22T03:34:22;12.18;;;7.00;;
76073;SDS011;64776;42.636;24.358;2023-07-22T03:37:23;16.98;;;8.57;;
76073;SDS011;64776;42.636;24.358;2023-07-22T03:40:25;19.35;;;10.55;;
76073;SDS011;64776;42.636;24.358;2023-07-22T03:43:26;18.20;;;10.23;;
76073;SDS011;64776;42.636;24.358;2023-07-22T03:46:27;18.17;;;9.80;;
76073;SDS011;64776;42.636;24.358;2023-07-22T03:49:28;21.75;;;11.82;;
76073;SDS011;64776;42.636;24.358;2023-07-22T03:52:28;16.05;;;9.32;;
76073;SDS011;64776;42.636;24.358;2023-07-22T03:55:30;17.38;;;8.07;;
76073;SDS011;64776;42.636;24.358;2023-07-22T03:58:31;16.42;;;7.10;;
76073;SDS011;64776;42.636;24.358;2023-07-22T04:01:32;14.35;;;7.78;;
76073;SDS011;64776;42.636;24.358;2023-07-22T04:04:34;17.15;;;7.97;;
76073;SDS011;64776;42.636;24.358;2023-07-22T04:07:35;16.23;;;8.88;;
76073;SDS011;64776;42.636;24.358;2023-07-22T04:10:37;18.52;;;9.55;;
76073;SDS011;64776;42.636;24.358;2023-07-22T04:13:38;17.60;;;9.98;;
76073;SDS011;64776;42.636;24.358;2023-07-22T04:16:40;26.00;;;8.95;;
76073;SDS011;64776;42.636;24.358;2023-07-22T04:19:41;17.75;;;7.90;;
76073;SDS011;64776;42.636;24.358;2023-07-22T04:22:42;17.52;;;9.02;;
76073;SDS011;64776;42.636;24.358;2023-07-22T04:25:44;16.90;;;8.20;;
76073;SDS011;64776;42.636;24.358;2023-07-22T04:28:45;17.90;;;8.38;;
76073;SDS011;64776;42.636;24.358;2023-07-22T04:31:45;19.67;;;8.45;;
76073;SDS011;64776;42.636;24.358;2023-07-22T04:34:46;13.98;;;7.75;;
76073;SDS011;64776;42.636;24.358;2023-07-22T04:37:47;15.20;;;7.97;;
76073;SDS011;64776;42.636;24.358;2023-07-22T04:40:49;15.75;;;8.32;;
76073;SDS011;64776;42.636;24.358;2023-07-22T04:43:50;15.55;;;8.77;;
76073;SDS011;64776;42.636;24.358;2023-07-22T04:46:51;21.67;;;8.27;;
76073;SDS011;64776;42.636;24.358;2023-07-22T04:49:51;20.27;;;9.18;;
76073;SDS011;64776;42.636;24.358;2023-07-22T04:52:53;18.35;;;9.10;;
76073;SDS011;64776;42.636;24.358;2023-07-22T04:55:56;15.93;;;8.82;;
76073;SDS011;64776;42.636;24.358;2023-07-22T04:58:57;21.83;;;9.35;;
76073;SDS011;64776;42.636;24.358;2023-07-22T05:01:58;15.32;;;8.77;;
76073;SDS011;64776;42.636;24.358;2023-07-22T05:04:58;18.92;;;9.48;;
76073;SDS011;64776;42.636;24.358;2023-07-22T05:07:59;19.27;;;8.95;;
76073;SDS011;64776;42.636;24.358;2023-07-22T05:11:01;18.08;;;10.40;;
76073;SDS011;64776;42.636;24.358;2023-07-22T05:14:02;15.90;;;7.97;;
76073;SDS011;64776;42.636;24.358;2023-07-22T05:17:03;17.17;;;8.18;;
76073;SDS011;64776;42.636;24.358;2023-07-22T05:20:05;23.95;;;9.82;;
76073;SDS011;64776;42.636;24.358;2023-07-22T05:23:06;16.95;;;8.57;;
76073;SDS011;64776;42.636;24.358;2023-07-22T05:26:08;21.58;;;8.68;;
76073;SDS011;64776;42.636;24.358;2023-07-22T05:29:09;16.05;;;6.85;;
76073;SDS011;64776;42.636;24.358;2023-07-22T05:32:10;13.57;;;6.63;;
76073;SDS011;64776;42.636;24.358;2023-07-22T05:35:11;16.73;;;7.43;;
76073;SDS011;64776;42.636;24.358;2023-07-22T05:38:12;22.55;;;7.75;;
76073;SDS011;64776;42.636;24.358;2023-07-22T05:41:14;11.88;;;6.22;;
76073;SDS011;64776;42.636;24.358;2023-07-22T05:44:15;17.45;;;7.30;;
76073;SDS011;64776;42.636;24.358;2023-07-22T05:47:15;13.93;;;6.07;;
76073;SDS011;64776;42.636;24.358;2023-07-22T05:50:16;15.45;;;6.57;;
76073;SDS011;64776;42.636;24.358;2023-07-22T05:53:17;18.63;;;7.22;;
76073;SDS011;64776;42.636;24.358;2023-07-22T05:56:19;16.33;;;7.43;;
76073;SDS011;64776;42.636;24.358;2023-07-22T05:59:20;12.45;;;7.10;;
76073;SDS011;64776;42.636;24.358;2023-07-22T06:02:20;11.70;;;6.22;;
76073;SDS011;64776;42.636;24.358;2023-07-22T06:05:21;14.70;;;6.47;;
76073;SDS011;64776;42.636;24.358;2023-07-22T06:08:22;11.95;;;5.38;;
76073;SDS011;64776;42.636;24.358;2023-07-22T06:11:24;16.00;;;6.53;;
76073;SDS011;64776;42.636;24.358;2023-07-22T06:14:25;14.23;;;6.82;;
76073;SDS011;64776;42.636;24.358;2023-07-22T06:17:26;12.60;;;7.70;;
76073;SDS011;64776;42.636;24.358;2023-07-22T06:20:27;17.02;;;6.82;;
76073;SDS011;64776;42.636;24.358;2023-07-22T06:23:30;20.73;;;9.40;;
76073;SDS011;64776;42.636;24.358;2023-07-22T06:26:32;16.80;;;7.70;;
76073;SDS011;64776;42.636;24.358;2023-07-22T06:29:33;14.65;;;6.80;;
76073;SDS011;64776;42.636;24.358;2023-07-22T06:32:34;12.30;;;5.88;;
76073;SDS011;64776;42.636;24.358;2023-07-22T06:35:38;14.38;;;5.38;;
76073;SDS011;64776;42.636;24.358;2023-07-22T06:38:39;13.52;;;5.50;;
76073;SDS011;64776;42.636;24.358;2023-07-22T06:41:41;12.95;;;5.20;;
76073;SDS011;64776;42.636;24.358;2023-07-22T06:44:42;11.40;;;4.70;;
76073;SDS011;64776;42.636;24.358;2023-07-22T06:47:49;13.05;;;5.18;;
76073;SDS011;64776;42.636;24.358;2023-07-22T06:50:49;11.13;;;4.97;;
76073;SDS011;64776;42.636;24.358;2023-07-22T06:53:50;12.25;;;4.38;;
76073;SDS011;64776;42.636;24.358;2023-07-22T06:56:52;13.52;;;4.95;;
76073;SDS011;64776;42.636;24.358;2023-07-22T06:59:53;9.25;;;4.10;;
76073;SDS011;64776;42.636;24.358;2023-07-22T07:02:54;10.50;;;4.32;;
76073;SDS011;64776;42.636;24.358;2023-07-22T07:05:55;10.75;;;4.88;;
76073;SDS011;64776;42.636;24.358;2023-07-22T07:08:58;13.45;;;6.22;;
76073;SDS011;64776;42.636;24.358;2023-07-22T07:12:01;9.65;;;4.60;;
76073;SDS011;64776;42.636;24.358;2023-07-22T07:15:01;9.32;;;4.28;;
76073;SDS011;64776;42.636;24.358;2023-07-22T07:18:02;11.07;;;5.30;;
76073;SDS011;64776;42.636;24.358;2023-07-22T07:21:03;17.00;;;5.43;;
76073;SDS011;64776;42.636;24.358;2023-07-22T07:24:04;10.05;;;4.18;;
76073;SDS011;64776;42.636;24.358;2023-07-22T07:27:07;16.00;;;6.57;;
76073;SDS011;64776;42.636;24.358;2023-07-22T07:30:08;11.70;;;4.72;;
76073;SDS011;64776;42.636;24.358;2023-07-22T07:33:09;11.65;;;4.75;;
76073;SDS011;64776;42.636;24.358;2023-07-22T07:36:09;10.98;;;4.38;;
76073;SDS011;64776;42.636;24.358;2023-07-22T07:39:10;11.63;;;4.38;;
76073;SDS011;64776;42.636;24.358;2023-07-22T07:42:12;10.02;;;4.43;;
76073;SDS011;64776;42.636;24.358;2023-07-22T07:45:13;11.38;;;4.07;;
76073;SDS011;64776;42.636;24.358;2023-07-22T07:48:14;12.13;;;4.22;;
76073;SDS011;64776;42.636;24.358;2023-07-22T07:51:15;11.70;;;4.38;;
76073;SDS011;64776;42.636;24.358;2023-07-22T07:54:17;11.48;;;3.70;;
76073;SDS011;64776;42.636;24.358;2023-07-22T07:57:19;11.43;;;4.55;;
76073;SDS011;64776;42.636;24.358;2023-07-22T08:00:20;10.88;;;4.13;;
76073;SDS011;64776;42.636;24.358;2023-07-22T08:03:20;12.60;;;4.28;;
76073;SDS011;64776;42.636;24.358;2023-07-22T08:06:21;8.93;;;4.00;;
76073;SDS011;64776;42.636;24.358;2023-07-22T08:09:22;11.88;;;4.88;;
76073;SDS011;64776;42.636;24.358;2023-07-22T08:12:25;11.57;;;4.53;;
76073;SDS011;64776;42.636;24.358;2023-07-22T08:15:27;9.93;;;3.75;;
76073;SDS011;64776;42.636;24.358;2023-07-22T08:18:28;14.45;;;4.60;;
76073;SDS011;64776;42.636;24.358;2023-07-22T08:21:29;12.77;;;3.67;;
76073;SDS011;64776;42.636;24.358;2023-07-22T08:24:30;10.68;;;4.32;;
76073;SDS011;64776;42.636;24.358;2023-07-22T08:27:32;12.02;;;3.85;;
76073;SDS011;64776;42.636;24.358;2023-07-22T08:30:33;13.70;;;4.97;;
76073;SDS011;64776;42.636;24.358;2023-07-22T08:33:34;10.45;;;4.18;;
76073;SDS011;64776;42.636;24.358;2023-07-22T08:36:34;13.52;;;3.88;;
76073;SDS011;64776;42.636;24.358;2023-07-22T08:39:35;11.20;;;3.78;;
76073;SDS011;64776;42.636;24.358;2023-07-22T08:42:37;13.27;;;4.05;;
76073;SDS011;64776;42.636;24.358;2023-07-22T08:45:38;15.02;;;3.45;;
76073;SDS011;64776;42.636;24.358;2023-07-22T08:48:41;13.50;;;4.57;;
76073;SDS011;64776;42.636;24.358;2023-07-22T08:51:46;9.77;;;3.85;;
76073;SDS011;64776;42.636;24.358;2023-07-22T08:54:47;12.15;;;3.75;;
76073;SDS011;64776;42.636;24.358;2023-07-22T08:57:51;14.52;;;3.70;;
76073;SDS011;64776;42.636;24.358;2023-07-22T09:00:52;12.60;;;4.88;;
76073;SDS011;64776;42.636;24.358;2023-07-22T09:03:54;18.95;;;6.78;;
76073;SDS011;64776;42.636;24.358;2023-07-22T09:06:56;18.92;;;6.50;;
76073;SDS011;64776;42.636;24.358;2023-07-22T09:09:57;12.02;;;3.80;;
76073;SDS011;64776;42.636;24.358;2023-07-22T09:13:01;14.52;;;4.05;;
76073;SDS011;64776;42.636;24.358;2023-07-22T09:16:02;11.35;;;4.22;;
76073;SDS011;64776;42.636;24.358;2023-07-22T09:19:03;13.48;;;3.70;;
76073;SDS011;64776;42.636;24.358;2023-07-22T09:22:04;10.75;;;4.18;;
76073;SDS011;64776;42.636;24.358;2023-07-22T09:25:11;12.38;;;5.22;;
76073;SDS011;64776;42.636;24.358;2023-07-22T09:28:15;12.15;;;4.85;;
76073;SDS011;64776;42.636;24.358;2023-07-22T09:34:17;12.63;;;3.08;;
76073;SDS011;64776;42.636;24.358;2023-07-22T09:37:18;15.35;;;3.28;;
76073;SDS011;64776;42.636;24.358;2023-07-22T09:40:19;15.10;;;4.20;;
76073;SDS011;64776;42.636;24.358;2023-07-22T09:43:22;10.80;;;3.87;;
76073;SDS011;64776;42.636;24.358;2023-07-22T09:46:28;13.05;;;4.00;;
76073;SDS011;64776;42.636;24.358;2023-07-22T09:49:32;17.25;;;4.18;;
76073;SDS011;64776;42.636;24.358;2023-07-22T09:52:32;12.63;;;4.22;;
76073;SDS011;64776;42.636;24.358;2023-07-22T09:55:33;12.82;;;3.20;;
76073;SDS011;64776;42.636;24.358;2023-07-22T09:58:35;7.90;;;2.65;;
76073;SDS011;64776;42.636;24.358;2023-07-22T10:01:38;15.88;;;3.72;;
76073;SDS011;64776;42.636;24.358;2023-07-22T10:04:39;17.58;;;4.03;;
76073;SDS011;64776;42.636;24.358;2023-07-22T10:07:42;10.32;;;3.42;;
76073;SDS011;64776;42.636;24.358;2023-07-22T10:13:46;17.15;;;4.30;;
76073;SDS011;64776;42.636;24.358;2023-07-22T10:16:47;13.23;;;3.90;;
76073;SDS011;64776;42.636;24.358;2023-07-22T10:19:49;12.13;;;3.78;;
76073;SDS011;64776;42.636;24.358;2023-07-22T10:25:53;13.85;;;3.80;;
76073;SDS011;64776;42.636;24.358;2023-07-22T10:28:55;14.80;;;4.10;;
76073;SDS011;64776;42.636;24.358;2023-07-22T10:31:57;10.90;;;3.35;;
76073;SDS011;64776;42.636;24.358;2023-07-22T10:34:58;14.15;;;3.95;;
76073;SDS011;64776;42.636;24.358;2023-07-22T10:38:06;13.70;;;4.00;;
76073;SDS011;64776;42.636;24.358;2023-07-22T10:41:14;13.30;;;3.80;;
76073;SDS011;64776;42.636;24.358;2023-07-22T10:44:17;15.45;;;3.72;;
76073;SDS011;64776;42.636;24.358;2023-07-22T10:47:30;15.70;;;3.30;;
76073;SDS011;64776;42.636;24.358;2023-07-22T10:50:41;13.70;;;4.05;;
76073;SDS011;64776;42.636;24.358;2023-07-22T10:53:44;17.23;;;3.53;;
76073;SDS011;64776;42.636;24.358;2023-07-22T10:56:50;13.07;;;3.85;;
76073;SDS011;64776;42.636;24.358;2023-07-22T10:59:52;12.68;;;4.18;;
76073;SDS011;64776;42.636;24.358;2023-07-22T11:03:11;15.43;;;4.05;;
76073;SDS011;64776;42.636;24.358;2023-07-22T11:06:13;17.35;;;3.75;;
76073;SDS011;64776;42.636;24.358;2023-07-22T11:12:38;16.52;;;3.80;;
76073;SDS011;64776;42.636;24.358;2023-07-22T11:15:40;18.02;;;3.75;;
76073;SDS011;64776;42.636;24.358;2023-07-22T11:18:47;19.17;;;4.38;;
76073;SDS011;64776;42.636;24.358;2023-07-22T11:21:50;15.18;;;3.30;;
76073;SDS011;64776;42.636;24.358;2023-07-22T11:24:52;15.70;;;3.60;;
76073;SDS011;64776;42.636;24.358;2023-07-22T11:27:54;14.75;;;3.42;;
76073;SDS011;64776;42.636;24.358;2023-07-22T11:30:56;10.65;;;3.67;;
76073;SDS011;64776;42.636;24.358;2023-07-22T11:33:58;9.90;;;3.70;;
76073;SDS011;64776;42.636;24.358;2023-07-22T11:36:59;18.80;;;4.28;;
76073;SDS011;64776;42.636;24.358;2023-07-22T11:40:00;17.10;;;4.07;;
76073;SDS011;64776;42.636;24.358;2023-07-22T11:43:02;16.70;;;5.57;;
76073;SDS011;64776;42.636;24.358;2023-07-22T11:46:05;19.27;;;4.72;;
76073;SDS011;64776;42.636;24.358;2023-07-22T11:49:06;15.20;;;4.85;;
76073;SDS011;64776;42.636;24.358;2023-07-22T11:52:08;16.70;;;4.45;;
76073;SDS011;64776;42.636;24.358;2023-07-22T11:55:09;17.55;;;4.03;;
76073;SDS011;64776;42.636;24.358;2023-07-22T11:58:11;13.93;;;4.82;;
76073;SDS011;64776;42.636;24.358;2023-07-22T12:01:13;15.45;;;4.40;;
76073;SDS011;64776;42.636;24.358;2023-07-22T12:04:14;14.65;;;4.18;;
76073;SDS011;64776;42.636;24.358;2023-07-22T12:07:21;17.42;;;4.80;;
76073;SDS011;64776;42.636;24.358;2023-07-22T12:10:24;20.33;;;4.70;;
76073;SDS011;64776;42.636;24.358;2023-07-22T12:13:24;20.50;;;5.10;;
76073;SDS011;64776;42.636;24.358;2023-07-22T12:16:27;17.00;;;4.53;;
76073;SDS011;64776;42.636;24.358;2023-07-22T12:19:29;17.17;;;3.35;;
76073;SDS011;64776;42.636;24.358;2023-07-22T12:22:30;14.35;;;3.88;;
76073;SDS011;64776;42.636;24.358;2023-07-22T12:25:31;17.70;;;4.45;;
76073;SDS011;64776;42.636;24.358;2023-07-22T12:28:32;13.40;;;3.13;;
76073;SDS011;64776;42.636;24.358;2023-07-22T12:31:35;10.80;;;3.05;;
76073;SDS011;64776;42.636;24.358;2023-07-22T12:34:35;15.38;;;3.65;;
76073;SDS011;64776;42.636;24.358;2023-07-22T12:37:36;17.90;;;3.63;;
76073;SDS011;64776;42.636;24.358;2023-07-22T12:40:37;18.52;;;4.20;;
76073;SDS011;64776;42.636;24.358;2023-07-22T12:43:38;16.88;;;4.32;;
76073;SDS011;64776;42.636;24.358;2023-07-22T12:46:40;18.67;;;3.88;;
76073;SDS011;64776;42.636;24.358;2023-07-22T12:49:41;15.73;;;4.07;;
76073;SDS011;64776;42.636;24.358;2023-07-22T12:53:07;17.05;;;4.07;;
76073;SDS011;64776;42.636;24.358;2023-07-22T12:56:08;15.52;;;3.92;;
76073;SDS011;64776;42.636;24.358;2023-07-22T12:59:09;11.73;;;3.53;;
76073;SDS011;64776;42.636;24.358;2023-07-22T13:02:11;18.08;;;4.25;;
76073;SDS011;64776;42.636;24.358;2023-07-22T13:05:12;12.75;;;3.92;;
76073;SDS011;64776;42.636;24.358;2023-07-22T13:08:13;10.57;;;3.63;;
76073;SDS011;64776;42.636;24.358;2023-07-22T13:11:14;12.73;;;3.63;;
76073;SDS011;64776;42.636;24.358;2023-07-22T13:14:14;19.98;;;4.18;;
76073;SDS011;64776;42.636;24.358;2023-07-22T13:17:17;19.00;;;6.05;;
76073;SDS011;64776;42.636;24.358;2023-07-22T13:20:17;15.65;;;5.18;;
76073;SDS011;64776;42.636;24.358;2023-07-22T13:23:18;15.27;;;4.15;;
76073;SDS011;64776;42.636;24.358;2023-07-22T13:26:19;15.77;;;5.10;;
76073;SDS011;64776;42.636;24.358;2023-07-22T13:29:20;21.10;;;5.43;;
76073;SDS011;64776;42.636;24.358;2023-07-22T13:32:22;13.15;;;4.07;;
76073;SDS011;64776;42.636;24.358;2023-07-22T13:35:23;18.23;;;4.18;;
76073;SDS011;64776;42.636;24.358;2023-07-22T13:38:24;15.60;;;4.63;;
76073;SDS011;64776;42.636;24.358;2023-07-22T13:41:25;11.65;;;4.15;;
76073;SDS011;64776;42.636;24.358;2023-07-22T13:44:25;16.80;;;4.00;;
76073;SDS011;64776;42.636;24.358;2023-07-22T13:47:28;19.92;;;5.07;;
76073;SDS011;64776;42.636;24.358;2023-07-22T13:50:28;14.63;;;4.00;;
76073;SDS011;64776;42.636;24.358;2023-07-22T13:53:29;17.05;;;4.32;;
76073;SDS011;64776;42.636;24.358;2023-07-22T13:56:30;18.00;;;3.80;;
76073;SDS011;64776;42.636;24.358;2023-07-22T13:59:31;18.85;;;5.07;;
76073;SDS011;64776;42.636;24.358;2023-07-22T14:02:33;16.15;;;4.55;;
76073;SDS011;64776;42.636;24.358;2023-07-22T14:05:33;18.10;;;4.63;;
76073;SDS011;64776;42.636;24.358;2023-07-22T14:08:35;22.25;;;5.45;;
76073;SDS011;64776;42.636;24.358;2023-07-22T14:11:36;16.48;;;4.88;;
76073;SDS011;64776;42.636;24.358;2023-07-22T14:14:37;19.10;;;4.32;;
76073;SDS011;64776;42.636;24.358;2023-07-22T14:17:39;20.23;;;4.90;;
76073;SDS011;64776;42.636;24.358;2023-07-22T14:20:40;17.90;;;5.15;;
76073;SDS011;64776;42.636;24.358;2023-07-22T14:23:42;17.98;;;4.68;;
76073;SDS011;64776;42.636;24.358;2023-07-22T14:26:43;17.85;;;4.75;;
76073;SDS011;64776;42.636;24.358;2023-07-22T14:29:44;18.73;;;5.00;;
76073;SDS011;64776;42.636;24.358;2023-07-22T14:32:46;17.75;;;5.28;;
76073;SDS011;64776;42.636;24.358;2023-07-22T14:35:47;20.33;;;5.43;;
76073;SDS011;64776;42.636;24.358;2023-07-22T14:38:49;19.77;;;5.13;;
76073;SDS011;64776;42.636;24.358;2023-07-22T14:41:50;19.10;;;4.43;;
76073;SDS011;64776;42.636;24.358;2023-07-22T14:44:51;14.45;;;4.45;;
76073;SDS011;64776;42.636;24.358;2023-07-22T14:47:53;22.65;;;4.95;;
76073;SDS011;64776;42.636;24.358;2023-07-22T14:50:54;17.95;;;5.25;;
76073;SDS011;64776;42.636;24.358;2023-07-22T14:53:54;15.68;;;4.47;;
76073;SDS011;64776;42.636;24.358;2023-07-22T14:56:55;15.60;;;4.45;;
76073;SDS011;64776;42.636;24.358;2023-07-22T14:59:56;15.88;;;4.10;;
76073;SDS011;64776;42.636;24.358;2023-07-22T15:02:58;14.98;;;3.92;;
76073;SDS011;64776;42.636;24.358;2023-07-22T15:05:59;17.85;;;4.43;;
76073;SDS011;64776;42.636;24.358;2023-07-22T15:09:00;17.77;;;5.05;;
76073;SDS011;64776;42.636;24.358;2023-07-22T15:12:02;18.08;;;5.10;;
76073;SDS011;64776;42.636;24.358;2023-07-22T15:15:03;18.98;;;4.18;;
76073;SDS011;64776;42.636;24.358;2023-07-22T15:18:06;18.42;;;5.10;;
76073;SDS011;64776;42.636;24.358;2023-07-22T15:21:07;16.15;;;5.25;;
76073;SDS011;64776;42.636;24.358;2023-07-22T15:24:08;17.48;;;5.88;;
76073;SDS011;64776;42.636;24.358;2023-07-22T15:27:08;15.38;;;5.05;;
76073;SDS011;64776;42.636;24.358;2023-07-22T15:30:09;19.90;;;5.18;;
76073;SDS011;64776;42.636;24.358;2023-07-22T15:33:12;23.67;;;5.63;;
76073;SDS011;64776;42.636;24.358;2023-07-22T15:36:13;21.23;;;5.47;;
76073;SDS011;64776;42.636;24.358;2023-07-22T15:39:14;20.45;;;5.07;;
76073;SDS011;64776;42.636;24.358;2023-07-22T15:42:15;15.57;;;5.05;;
76073;SDS011;64776;42.636;24.358;2023-07-22T15:45:41;13.88;;;5.93;;
76073;SDS011;64776;42.636;24.358;2023-07-22T15:48:43;12.50;;;4.65;;
76073;SDS011;64776;42.636;24.358;2023-07-22T15:51:44;18.80;;;5.80;;
76073;SDS011;64776;42.636;24.358;2023-07-22T15:54:44;16.70;;;4.47;;
76073;SDS011;64776;42.636;24.358;2023-07-22T15:57:45;20.98;;;6.05;;
76073;SDS011;64776;42.636;24.358;2023-07-22T16:00:46;15.25;;;4.90;;
76073;SDS011;64776;42.636;24.358;2023-07-22T16:03:48;18.83;;;5.03;;
76073;SDS011;64776;42.636;24.358;2023-07-22T16:06:49;16.52;;;4.45;;
76073;SDS011;64776;42.636;24.358;2023-07-22T16:09:50;19.38;;;5.03;;
76073;SDS011;64776;42.636;24.358;2023-07-22T16:12:51;16.25;;;5.20;;
76073;SDS011;64776;42.636;24.358;2023-07-22T16:15:51;19.15;;;4.78;;
76073;SDS011;64776;42.636;24.358;2023-07-22T16:18:54;18.90;;;5.00;;
76073;SDS011;64776;42.636;24.358;2023-07-22T16:21:54;21.23;;;5.03;;
76073;SDS011;64776;42.636;24.358;2023-07-22T16:24:55;17.13;;;5.03;;
76073;SDS011;64776;42.636;24.358;2023-07-22T16:27:56;21.33;;;5.40;;
76073;SDS011;64776;42.636;24.358;2023-07-22T16:30:57;19.60;;;5.38;;
76073;SDS011;64776;42.636;24.358;2023-07-22T16:33:59;18.77;;;5.40;;
76073;SDS011;64776;42.636;24.358;2023-07-22T16:37:00;23.55;;;6.03;;
76073;SDS011;64776;42.636;24.358;2023-07-22T16:40:01;13.85;;;5.03;;
76073;SDS011;64776;42.636;24.358;2023-07-22T16:43:03;18.15;;;5.25;;
76073;SDS011;64776;42.636;24.358;2023-07-22T16:46:03;15.50;;;4.38;;
76073;SDS011;64776;42.636;24.358;2023-07-22T16:49:05;14.45;;;4.65;;
76073;SDS011;64776;42.636;24.358;2023-07-22T16:52:06;13.70;;;4.45;;
76073;SDS011;64776;42.636;24.358;2023-07-22T16:55:11;13.88;;;4.22;;
76073;SDS011;64776;42.636;24.358;2023-07-22T16:58:12;28.58;;;6.20;;
76073;SDS011;64776;42.636;24.358;2023-07-22T17:01:13;15.52;;;4.72;;
76073;SDS011;64776;42.636;24.358;2023-07-22T17:04:15;16.48;;;4.95;;
76073;SDS011;64776;42.636;24.358;2023-07-22T17:07:15;13.95;;;5.05;;
76073;SDS011;64776;42.636;24.358;2023-07-22T17:10:16;16.20;;;5.05;;
76073;SDS011;64776;42.636;24.358;2023-07-22T17:13:17;18.27;;;5.38;;
76073;SDS011;64776;42.636;24.358;2023-07-22T17:16:18;18.05;;;5.22;;
76073;SDS011;64776;42.636;24.358;2023-07-22T17:19:21;17.33;;;5.57;;
76073;SDS011;64776;42.636;24.358;2023-07-22T17:22:22;15.45;;;4.60;;
76073;SDS011;64776;42.636;24.358;2023-07-22T17:25:23;13.15;;;5.00;;
76073;SDS011;64776;42.636;24.358;2023-07-22T17:28:24;16.40;;;5.63;;
76073;SDS011;64776;42.636;24.358;2023-07-22T17:31:25;18.42;;;5.47;;
76073;SDS011;64776;42.636;24.358;2023-07-22T17:34:27;19.02;;;5.53;;
76073;SDS011;64776;42.636;24.358;2023-07-22T17:37:28;20.00;;;5.82;;
76073;SDS011;64776;42.636;24.358;2023-07-22T17:40:29;16.90;;;5.70;;
76073;SDS011;64776;42.636;24.358;2023-07-22T17:43:30;18.45;;;4.80;;
76073;SDS011;64776;42.636;24.358;2023-07-22T17:46:30;21.60;;;7.43;;
76073;SDS011;64776;42.636;24.358;2023-07-22T17:49:33;16.73;;;5.63;;
76073;SDS011;64776;42.636;24.358;2023-07-22T17:52:34;18.92;;;4.80;;
76073;SDS011;64776;42.636;24.358;2023-07-22T17:55:35;22.58;;;6.20;;
76073;SDS011;64776;42.636;24.358;2023-07-22T17:58:35;16.42;;;5.25;;
76073;SDS011;64776;42.636;24.358;2023-07-22T18:01:36;20.63;;;5.88;;
76073;SDS011;64776;42.636;24.358;2023-07-22T18:04:38;17.17;;;6.43;;
76073;SDS011;64776;42.636;24.358;2023-07-22T18:07:39;18.83;;;6.57;;
76073;SDS011;64776;42.636;24.358;2023-07-22T18:10:40;18.38;;;8.30;;